Time;durP1;ratioP1;P1;durP2;ratioP2;P2;SDS_P1;SDS_P2;PMS_P1;PMS_P2;Temp;Humidity;BMP_temperature;BMP_pressure;BME280_temperature;BME280_humidity;BME280_pressure;Samples;Min_cycle;Max_cycle;Signal;HPM_P1;HPM_P2
2022/09/19 00:01:26;;;;;;;19.02;2.33;;;11.40;99.90;;;;;;5026770;28;20128;-75
2022/09/19 00:03:55;;;;;;;23.48;3.22;;;11.20;99.90;;;;;;5029532;28;20554;-74
2022/09/19 00:06:21;;;;;;;13.75;3.13;;;11.40;99.90;;;;;;5023945;28;20041;-74
2022/09/19 00:08:47;;;;;;;23.00;2.75;;;12.10;99.90;;;;;;5028727;28;20050;-74
2022/09/19 00:11:17;;;;;;;13.80;2.55;;;12.10;99.90;;;;;;5030557;28;20489;-75
2022/09/19 00:13:47;;;;;;;14.73;2.15;;;11.20;99.90;;;;;;5033612;28;20160;-74
2022/09/19 00:16:24;;;;;;;27.00;2.38;;;11.40;99.90;;;;;;5029313;28;20084;-74
2022/09/19 00:18:52;;;;;;;24.20;3.78;;;11.70;99.90;;;;;;5029026;28;20059;-74
2022/09/19 00:21:20;;;;;;;19.38;2.42;;;11.60;99.90;;;;;;5039043;28;20056;-74
2022/09/19 00:26:30;;;;;;;17.00;1.90;;;11.50;99.90;;;;;;5030128;28;20057;-74
2022/09/19 00:28:55;;;;;;;15.02;3.47;;;11.70;99.90;;;;;;5036605;28;20033;-74
2022/09/19 00:31:21;;;;;;;17.90;3.42;;;11.80;99.90;;;;;;5022649;28;20048;-74
2022/09/19 00:33:48;;;;;;;11.85;2.17;;;12.10;99.90;;;;;;5027917;28;20053;-74
2022/09/19 00:36:15;;;;;;;10.50;1.85;;;11.30;99.90;;;;;;5021899;28;20077;-74
2022/09/19 00:38:42;;;;;;;11.27;1.70;;;12.20;99.90;;;;;;5030220;28;20123;-75
2022/09/19 00:41:12;;;;;;;11.70;2.67;;;11.30;99.90;;;;;;5032482;28;20491;-75
2022/09/19 00:43:50;;;;;;;19.63;3.95;;;11.30;99.90;;;;;;5027787;28;20041;-75
2022/09/19 00:46:16;;;;;;;19.45;4.30;;;12.10;99.90;;;;;;5024510;28;20048;-74
2022/09/19 00:48:45;;;;;;;17.17;2.42;;;11.30;99.90;;;;;;5029195;28;20196;-75
2022/09/19 00:51:16;;;;;;;28.95;4.68;;;11.50;99.90;;;;;;5027447;28;20056;-74
2022/09/19 00:53:45;;;;;;;18.83;3.45;;;11.80;99.90;;;;;;5031626;28;20052;-76
2022/09/19 00:56:11;;;;;;;15.48;2.67;;;11.90;99.90;;;;;;5031066;28;20045;-75
2022/09/19 00:58:41;;;;;;;16.15;1.60;;;11.40;99.90;;;;;;5036649;28;20026;-76
2022/09/19 01:01:07;;;;;;;22.50;3.90;;;11.30;99.90;;;;;;5048568;28;20041;-76
2022/09/19 01:03:33;;;;;;;18.33;2.20;;;11.60;99.90;;;;;;5040421;28;20070;-75
2022/09/19 01:06:12;;;;;;;18.67;2.28;;;11.70;99.90;;;;;;5028927;28;20090;-76
2022/09/19 01:08:50;;;;;;;29.88;4.75;;;11.40;99.90;;;;;;5034898;28;20045;-76
2022/09/19 01:11:49;;;;;;;12.90;2.88;;;12.10;99.90;;;;;;5044851;28;20029;-75
2022/09/19 01:14:31;;;;;;;20.00;2.15;;;11.60;99.90;;;;;;5036714;28;20081;-75
2022/09/19 01:17:08;;;;;;;17.77;2.17;;;11.40;99.90;;;;;;5037258;28;20041;-76
2022/09/19 01:19:57;;;;;;;20.00;4.07;;;11.20;99.90;;;;;;5022981;28;20036;-76
2022/09/19 01:22:43;;;;;;;11.77;2.25;;;11.90;99.90;;;;;;5016965;28;20064;-75
2022/09/19 01:25:28;;;;;;;21.08;3.17;;;11.70;99.90;;;;;;5025884;28;20049;-75
2022/09/19 01:28:21;;;;;;;17.70;2.50;;;11.40;99.90;;;;;;5018455;28;20045;-75
2022/09/19 01:31:17;;;;;;;14.00;2.88;;;11.90;99.90;;;;;;5026320;28;20501;-74
2022/09/19 01:33:53;;;;;;;14.43;2.80;;;11.80;99.90;;;;;;5026398;28;20045;-75
2022/09/19 01:36:26;;;;;;;18.95;3.20;;;11.30;99.90;;;;;;5024273;28;20048;-75
2022/09/19 01:38:53;;;;;;;21.13;3.40;;;11.10;99.90;;;;;;5029523;28;20039;-75
2022/09/19 01:41:21;;;;;;;18.23;2.20;;;11.40;99.90;;;;;;5028149;28;20045;-75
2022/09/19 01:43:48;;;;;;;15.35;3.15;;;11.40;99.90;;;;;;5023271;28;20124;-75
2022/09/19 01:46:43;;;;;;;18.83;3.80;;;11.10;99.90;;;;;;5028117;28;20507;-76
2022/09/19 01:49:31;;;;;;;12.82;2.90;;;11.60;99.90;;;;;;5018893;28;20532;-75
2022/09/19 01:52:19;;;;;;;16.17;2.83;;;11.40;99.90;;;;;;5025196;28;20049;-75
2022/09/19 01:55:06;;;;;;;14.80;4.55;;;11.20;99.90;;;;;;5025327;28;20046;-75
2022/09/19 01:57:40;;;;;;;15.60;2.40;;;11.40;99.90;;;;;;5023411;28;20034;-75
2022/09/19 02:00:15;;;;;;;16.63;1.73;;;11.10;99.90;;;;;;5022891;28;20091;-74
2022/09/19 02:03:05;;;;;;;16.35;3.58;;;11.70;99.90;;;;;;5033958;28;20056;-75
2022/09/19 02:05:53;;;;;;;20.95;3.35;;;11.30;99.90;;;;;;5026979;28;20392;-75
2022/09/19 02:08:31;;;;;;;29.77;3.30;;;11.80;99.90;;;;;;5025415;28;20110;-75
2022/09/19 02:11:19;;;;;;;14.27;3.15;;;11.20;99.90;;;;;;5023788;28;20431;-75
2022/09/19 02:13:53;;;;;;;24.83;3.03;;;11.40;99.90;;;;;;5030334;28;20121;-74
2022/09/19 02:16:30;;;;;;;15.65;3.33;;;11.50;99.90;;;;;;5022423;28;20045;-74
2022/09/19 02:19:09;;;;;;;21.77;3.30;;;11.40;99.90;;;;;;5024956;28;20399;-75
2022/09/19 02:21:50;;;;;;;35.22;4.78;;;12.20;99.90;;;;;;5035671;28;20037;-75
2022/09/19 02:24:22;;;;;;;14.52;3.15;;;11.40;99.90;;;;;;5023655;28;20072;-74
2022/09/19 02:26:51;;;;;;;10.07;2.08;;;11.40;99.90;;;;;;5008251;28;20056;-75
2022/09/19 02:29:22;;;;;;;20.25;3.63;;;11.40;99.90;;;;;;5022648;28;20129;-74
2022/09/19 02:31:49;;;;;;;10.40;2.35;;;11.70;99.90;;;;;;5022702;28;20041;-75
2022/09/19 02:34:15;;;;;;;14.43;2.17;;;11.80;99.90;;;;;;5023526;28;20488;-74
2022/09/19 02:36:51;;;;;;;17.30;2.75;;;12.20;99.90;;;;;;5024285;28;20048;-75
2022/09/19 02:39:20;;;;;;;16.40;3.22;;;12.00;99.90;;;;;;5023445;28;20495;-75
2022/09/19 02:42:14;;;;;;;13.43;1.98;;;11.30;99.90;;;;;;5029584;28;20736;-74
2022/09/19 02:44:57;;;;;;;13.95;2.92;;;11.50;99.90;;;;;;5031797;28;20077;-75
2022/09/19 02:47:32;;;;;;;21.23;4.28;;;11.50;99.90;;;;;;5032940;28;20049;-75
2022/09/19 02:50:06;;;;;;;25.40;3.05;;;12.20;99.90;;;;;;5023828;28;20053;-75
2022/09/19 02:52:33;;;;;;;12.95;2.50;;;11.80;99.90;;;;;;5039630;28;20038;-75
2022/09/19 02:55:19;;;;;;;7.25;1.88;;;11.50;99.90;;;;;;5036102;28;20043;-74
2022/09/19 02:57:48;;;;;;;13.40;3.25;;;12.00;99.90;;;;;;5035421;28;20041;-75
2022/09/19 03:00:15;;;;;;;14.35;1.92;;;11.50;99.90;;;;;;5027696;28;20037;-74
2022/09/19 03:02:54;;;;;;;15.98;2.92;;;11.70;99.90;;;;;;5034991;28;20041;-75
2022/09/19 03:05:20;;;;;;;14.00;2.35;;;11.60;99.90;;;;;;5029480;28;20042;-75
2022/09/19 03:08:06;;;;;;;20.92;2.67;;;12.40;99.90;;;;;;5032263;28;20045;-74
2022/09/19 03:10:37;;;;;;;15.35;2.20;;;11.50;99.90;;;;;;5028024;28;20052;-74
2022/09/19 03:13:08;;;;;;;20.65;3.13;;;12.10;99.90;;;;;;5028191;28;20042;-74
2022/09/19 03:15:53;;;;;;;26.55;3.40;;;12.10;99.90;;;;;;5029602;28;20053;-75
2022/09/19 03:18:21;;;;;;;15.90;2.10;;;11.90;99.90;;;;;;5028847;28;20048;-74
2022/09/19 03:20:51;;;;;;;16.58;1.73;;;11.40;99.90;;;;;;5037802;28;20048;-76
2022/09/19 03:23:23;;;;;;;14.38;3.40;;;12.20;99.90;;;;;;5035950;28;20057;-75
2022/09/19 03:25:50;;;;;;;21.88;3.28;;;11.40;99.90;;;;;;5033551;28;20037;-75
2022/09/19 03:28:19;;;;;;;18.25;2.88;;;11.80;99.90;;;;;;5034370;28;20438;-75
2022/09/19 03:30:46;;;;;;;18.77;2.60;;;11.50;99.90;;;;;;5038611;28;20060;-76
2022/09/19 03:33:15;;;;;;;18.10;3.65;;;11.40;99.90;;;;;;5029303;28;20033;-75
2022/09/19 03:35:42;;;;;;;16.50;2.57;;;12.10;99.90;;;;;;5029000;28;20045;-75
2022/09/19 03:38:08;;;;;;;19.15;1.58;;;12.10;99.90;;;;;;5044546;28;20051;-76
2022/09/19 03:40:34;;;;;;;16.77;2.53;;;11.50;99.90;;;;;;5030818;28;20446;-75
2022/09/19 03:43:00;;;;;;;20.55;2.72;;;11.80;99.90;;;;;;5038363;28;20047;-76
2022/09/19 03:45:26;;;;;;;18.05;2.50;;;12.00;99.90;;;;;;5029575;28;20049;-76
2022/09/19 03:47:51;;;;;;;19.30;2.25;;;12.10;99.90;;;;;;5030337;28;20123;-76
2022/09/19 03:50:17;;;;;;;13.82;1.70;;;11.20;99.90;;;;;;5027270;28;20149;-76
2022/09/19 03:52:47;;;;;;;20.55;3.00;;;11.20;99.90;;;;;;5036855;28;20060;-76
2022/09/19 03:55:13;;;;;;;22.95;3.25;;;11.30;99.90;;;;;;5026778;28;20407;-76
2022/09/19 03:57:39;;;;;;;20.23;3.70;;;11.20;99.90;;;;;;5025772;28;20041;-75
2022/09/19 04:00:05;;;;;;;14.68;2.92;;;11.10;99.90;;;;;;5022730;28;20025;-75
2022/09/19 04:02:31;;;;;;;23.23;3.25;;;11.80;99.90;;;;;;5031559;28;20094;-76
2022/09/19 04:04:56;;;;;;;12.57;2.17;;;11.50;99.90;;;;;;5038303;28;20037;-75
2022/09/19 04:07:22;;;;;;;17.17;2.40;;;11.30;99.90;;;;;;5032314;28;20083;-76
2022/09/19 04:09:47;;;;;;;22.30;4.28;;;11.20;99.90;;;;;;5028218;28;20072;-76
2022/09/19 04:12:13;;;;;;;14.30;2.72;;;11.10;99.90;;;;;;5027788;28;20407;-75
2022/09/19 04:14:39;;;;;;;21.77;3.65;;;11.80;99.90;;;;;;5027647;28;20076;-75
2022/09/19 04:17:07;;;;;;;22.75;2.63;;;11.00;99.90;;;;;;5026686;28;20073;-75
2022/09/19 04:19:32;;;;;;;16.92;2.13;;;10.90;99.90;;;;;;5028603;28;20065;-75
2022/09/19 04:21:59;;;;;;;15.88;2.40;;;11.20;99.90;;;;;;5023075;28;20077;-75
2022/09/19 04:24:26;;;;;;;22.30;3.33;;;11.60;99.90;;;;;;5029872;28;20140;-76
2022/09/19 04:26:52;;;;;;;12.45;1.95;;;11.30;99.90;;;;;;5028245;28;20099;-76
2022/09/19 04:29:19;;;;;;;17.05;2.35;;;11.30;99.90;;;;;;5027112;28;20081;-76
2022/09/19 04:31:45;;;;;;;14.00;2.63;;;10.80;99.90;;;;;;5027161;28;20041;-76
2022/09/19 04:34:14;;;;;;;16.92;2.58;;;11.10;99.90;;;;;;5034421;28;20072;-75
2022/09/19 04:36:40;;;;;;;17.90;2.95;;;10.80;99.90;;;;;;5026863;28;20408;-76
2022/09/19 04:39:06;;;;;;;14.73;2.03;;;11.70;99.90;;;;;;5028480;28;20393;-76
2022/09/19 04:41:36;;;;;;;14.63;2.50;;;11.60;99.90;;;;;;5023393;28;20037;-75
2022/09/19 04:44:03;;;;;;;27.25;3.58;;;10.90;99.90;;;;;;5032519;28;20095;-76
2022/09/19 04:46:30;;;;;;;16.10;2.80;;;10.80;99.90;;;;;;5015914;28;20842;-76
2022/09/19 04:48:57;;;;;;;15.07;2.50;;;11.20;99.90;;;;;;5021844;28;20045;-76
2022/09/19 04:51:23;;;;;;;14.95;2.45;;;11.20;99.90;;;;;;5006455;28;20049;-75
2022/09/19 04:53:50;;;;;;;7.20;1.80;;;11.70;99.90;;;;;;5023757;28;20065;-75
2022/09/19 04:56:17;;;;;;;14.30;1.80;;;11.60;99.90;;;;;;5024863;28;20037;-75
2022/09/19 04:58:44;;;;;;;14.95;3.35;;;11.70;99.90;;;;;;5041598;28;20101;-75
2022/09/19 05:01:10;;;;;;;19.02;2.35;;;11.70;99.90;;;;;;5033977;28;20057;-74
2022/09/19 05:03:37;;;;;;;17.42;3.40;;;11.60;99.90;;;;;;5037850;28;20460;-76
2022/09/19 05:06:05;;;;;;;15.90;2.47;;;11.80;99.90;;;;;;5034558;28;20036;-74
2022/09/19 05:08:32;;;;;;;20.83;4.13;;;11.60;99.90;;;;;;5028590;28;20045;-72
2022/09/19 05:11:01;;;;;;;17.80;3.20;;;10.90;99.90;;;;;;5022703;28;20041;-72
2022/09/19 05:13:29;;;;;;;10.23;1.55;;;11.20;99.90;;;;;;5037713;28;20071;-72
2022/09/19 05:15:55;;;;;;;30.88;4.10;;;11.80;99.90;;;;;;5025087;28;20048;-73
2022/09/19 05:18:23;;;;;;;24.50;4.10;;;11.60;99.90;;;;;;5025472;28;20056;-72
2022/09/19 05:20:54;;;;;;;14.95;2.05;;;11.70;99.90;;;;;;5027076;28;20049;-75
2022/09/19 05:23:23;;;;;;;10.70;2.30;;;11.00;99.90;;;;;;5024633;28;20431;-73
2022/09/19 05:25:52;;;;;;;49.70;4.40;;;11.40;99.90;;;;;;5022660;28;20131;-73
2022/09/19 05:28:19;;;;;;;16.10;2.20;;;11.60;99.90;;;;;;5021639;28;20045;-72
2022/09/19 05:30:49;;;;;;;13.40;2.35;;;11.20;99.90;;;;;;5022188;28;20049;-73
2022/09/19 05:33:21;;;;;;;17.00;2.38;;;11.50;99.90;;;;;;5023714;28;20046;-72
2022/09/19 05:35:47;;;;;;;17.27;3.83;;;11.40;99.90;;;;;;5026200;28;20091;-73
2022/09/19 05:38:13;;;;;;;15.65;3.00;;;11.10;99.90;;;;;;5024552;28;20040;-73
2022/09/19 05:40:38;;;;;;;16.67;2.47;;;10.80;99.90;;;;;;5026935;28;20041;-72
2022/09/19 05:43:04;;;;;;;19.33;3.38;;;11.50;99.90;;;;;;5024335;28;20479;-73
2022/09/19 05:45:31;;;;;;;10.90;1.90;;;11.30;99.90;;;;;;5016355;28;20041;-72
2022/09/19 05:48:05;;;;;;;31.38;3.03;;;11.50;99.90;;;;;;5021116;28;20628;-73
2022/09/19 05:50:32;;;;;;;10.73;1.10;;;11.60;99.90;;;;;;5024201;28;20448;-72
2022/09/19 05:55:43;;;;;;;11.52;1.90;;;11.30;99.90;;;;;;5025572;28;20523;-73
2022/09/19 05:58:09;;;;;;;12.10;2.78;;;10.90;99.90;;;;;;5020270;28;20128;-72
2022/09/19 06:00:37;;;;;;;9.98;1.95;;;10.90;99.90;;;;;;5020391;28;20106;-73
2022/09/19 06:03:05;;;;;;;11.38;1.98;;;11.20;99.90;;;;;;5024095;28;20033;-72
2022/09/19 06:05:38;;;;;;;10.75;1.88;;;10.90;99.90;;;;;;5023072;28;20050;-73
2022/09/19 06:08:04;;;;;;;8.93;1.65;;;11.30;99.90;;;;;;5023822;28;20800;-73
2022/09/19 06:10:34;;;;;;;10.45;1.63;;;11.50;99.90;;;;;;5026260;28;20056;-73
2022/09/19 06:13:00;;;;;;;14.95;3.22;;;11.70;99.90;;;;;;5022174;28;20045;-73
2022/09/19 06:15:26;;;;;;;11.07;2.28;;;11.10;99.90;;;;;;5002950;28;20067;-73
2022/09/19 06:17:55;;;;;;;15.82;3.40;;;11.00;99.90;;;;;;5021542;28;20029;-73
2022/09/19 06:20:20;;;;;;;12.73;1.90;;;11.10;99.90;;;;;;5024463;28;20072;-74
2022/09/19 06:22:47;;;;;;;14.70;3.03;;;11.50;99.90;;;;;;5025442;28;20042;-73
2022/09/19 06:25:13;;;;;;;13.73;3.50;;;11.30;99.90;;;;;;5019299;28;20049;-73
2022/09/19 06:27:42;;;;;;;10.18;2.65;;;11.80;99.90;;;;;;5024218;28;20095;-72
2022/09/19 06:30:08;;;;;;;27.40;3.30;;;11.90;99.90;;;;;;5019397;28;20171;-74
2022/09/19 06:32:36;;;;;;;12.63;2.83;;;12.10;99.90;;;;;;5021579;28;20476;-74
2022/09/19 06:35:02;;;;;;;17.30;2.97;;;12.20;99.90;;;;;;5024449;28;20060;-72
2022/09/19 06:37:28;;;;;;;10.13;1.77;;;12.00;99.90;;;;;;5024484;28;20041;-73
2022/09/19 06:39:53;;;;;;;22.73;3.33;;;11.70;99.90;;;;;;5022635;28;20041;-74
2022/09/19 06:42:19;;;;;;;15.38;1.33;;;11.80;99.90;;;;;;5023486;28;20041;-73
2022/09/19 06:44:45;;;;;;;16.25;3.00;;;12.40;99.90;;;;;;5024444;28;20440;-73
2022/09/19 06:47:10;;;;;;;12.75;1.98;;;11.80;99.90;;;;;;5022954;28;20057;-73
2022/09/19 06:49:36;;;;;;;38.15;3.22;;;11.70;99.90;;;;;;5021066;28;20056;-73
2022/09/19 06:52:02;;;;;;;21.85;3.72;;;11.70;99.90;;;;;;5024208;28;20034;-74
2022/09/19 06:54:28;;;;;;;16.92;2.60;;;11.80;99.90;;;;;;5023489;28;20088;-73
2022/09/19 06:56:54;;;;;;;16.83;3.72;;;11.80;99.90;;;;;;5022705;28;20077;-74
2022/09/19 06:59:19;;;;;;;13.00;2.10;;;11.90;99.90;;;;;;5022454;28;20073;-73
2022/09/19 07:01:45;;;;;;;13.23;2.60;;;12.10;99.90;;;;;;5023268;28;20034;-73
2022/09/19 07:04:12;;;;;;;10.02;2.08;;;12.10;99.90;;;;;;5023144;28;20056;-74
2022/09/19 07:06:37;;;;;;;13.90;2.83;;;12.40;99.90;;;;;;5023740;28;20075;-75
2022/09/19 07:09:05;;;;;;;22.05;3.33;;;12.40;99.90;;;;;;5023650;28;20439;-76
2022/09/19 07:11:32;;;;;;;13.63;2.40;;;13.00;99.90;;;;;;5022185;28;20080;-74
2022/09/19 07:13:58;;;;;;;10.43;2.08;;;12.40;99.90;;;;;;5022016;28;20103;-74
2022/09/19 07:16:24;;;;;;;16.15;1.58;;;12.90;99.90;;;;;;5024270;28;20049;-75
2022/09/19 07:18:50;;;;;;;15.52;2.60;;;12.30;99.90;;;;;;5022894;28;20052;-74
2022/09/19 07:21:16;;;;;;;14.32;2.10;;;12.70;99.90;;;;;;5021035;28;20046;-74
2022/09/19 07:23:41;;;;;;;20.00;3.33;;;12.20;99.90;;;;;;5022754;28;20065;-74
2022/09/19 07:26:07;;;;;;;13.50;2.92;;;12.60;99.90;;;;;;5020274;28;20072;-74
2022/09/19 07:28:33;;;;;;;20.15;2.63;;;12.30;99.90;;;;;;5019969;28;20160;-74
2022/09/19 07:30:59;;;;;;;19.70;2.92;;;12.70;99.90;;;;;;5027455;28;20120;-74
2022/09/19 07:33:25;;;;;;;10.40;1.98;;;12.80;99.90;;;;;;5021450;28;20045;-75
2022/09/19 07:35:53;;;;;;;22.67;4.57;;;12.80;99.90;;;;;;5025523;28;20057;-74
2022/09/19 07:38:21;;;;;;;18.92;4.05;;;12.60;99.90;;;;;;5026772;28;20440;-73
2022/09/19 07:40:47;;;;;;;13.30;1.50;;;12.80;99.90;;;;;;5028019;28;20052;-73
2022/09/19 07:43:16;;;;;;;13.30;1.83;;;12.90;99.90;;;;;;5025137;28;20034;-74
2022/09/19 07:45:47;;;;;;;11.80;3.17;;;13.40;99.90;;;;;;5026829;28;20049;-74
2022/09/19 07:48:13;;;;;;;30.58;4.30;;;13.10;99.90;;;;;;5024435;28;20037;-78
2022/09/19 07:50:39;;;;;;;12.50;4.22;;;13.00;99.90;;;;;;5024643;28;20072;-74
2022/09/19 07:53:22;;;;;;;13.65;2.78;;;13.20;99.90;;;;;;5026798;28;20489;-74
2022/09/19 07:55:51;;;;;;;14.02;1.98;;;13.50;99.90;;;;;;5027880;28;20061;-73
2022/09/19 07:58:17;;;;;;;10.53;2.13;;;13.80;99.90;;;;;;5020591;28;20053;-74
2022/09/19 08:00:48;;;;;;;10.80;2.28;;;13.30;99.90;;;;;;5025421;28;20045;-75
2022/09/19 08:03:15;;;;;;;14.68;2.83;;;13.80;99.90;;;;;;5025161;28;20057;-74
2022/09/19 08:05:43;;;;;;;15.68;4.65;;;13.90;99.90;;;;;;5025621;28;20042;-74
2022/09/19 08:08:11;;;;;;;17.35;4.20;;;13.70;99.90;;;;;;5024917;28;20033;-74
2022/09/19 08:10:40;;;;;;;16.23;2.75;;;14.00;99.90;;;;;;5028153;28;20037;-74
2022/09/19 08:13:08;;;;;;;14.68;2.63;;;14.00;99.90;;;;;;5026724;28;20128;-74
2022/09/19 08:15:35;;;;;;;23.67;3.17;;;14.20;99.90;;;;;;5025300;28;20084;-75
2022/09/19 08:18:09;;;;;;;13.88;2.08;;;14.20;99.90;;;;;;5030777;28;20064;-76
2022/09/19 08:20:39;;;;;;;20.95;3.10;;;13.70;99.90;;;;;;5024851;28;20049;-75
2022/09/19 08:23:11;;;;;;;17.20;3.08;;;13.90;99.90;;;;;;5022245;28;20515;-74
2022/09/19 08:25:39;;;;;;;14.68;2.38;;;13.80;99.90;;;;;;5008080;28;20046;-74
2022/09/19 08:28:05;;;;;;;32.85;3.95;;;13.80;99.90;;;;;;5022403;28;20064;-74
2022/09/19 08:30:36;;;;;;;15.00;2.72;;;13.70;99.90;;;;;;5026343;28;20566;-74
2022/09/19 08:33:02;;;;;;;12.50;2.15;;;13.70;99.90;;;;;;5023243;28;20037;-75
2022/09/19 08:35:30;;;;;;;11.02;2.67;;;13.30;99.90;;;;;;5025177;28;20076;-75
2022/09/19 08:37:58;;;;;;;15.43;2.47;;;13.40;99.90;;;;;;5026690;28;20037;-75
2022/09/19 08:40:29;;;;;;;10.82;1.77;;;13.10;99.90;;;;;;5024809;28;20488;-75
2022/09/19 08:43:14;;;;;;;15.40;2.78;;;13.30;99.90;;;;;;5017687;28;20034;-75
2022/09/19 08:46:02;;;;;;;16.52;3.22;;;13.50;99.90;;;;;;5027111;28;20128;-74
2022/09/19 08:48:54;;;;;;;12.55;2.33;;;13.80;99.90;;;;;;5024093;28;20129;-74
2022/09/19 08:51:28;;;;;;;20.15;4.50;;;14.10;99.90;;;;;;5024593;28;20045;-74
2022/09/19 08:54:21;;;;;;;13.38;2.83;;;14.10;99.90;;;;;;5026103;28;20511;-75
2022/09/19 08:56:46;;;;;;;16.42;3.58;;;14.40;99.90;;;;;;5022791;28;20121;-75
2022/09/19 08:59:20;;;;;;;24.73;2.85;;;14.50;99.90;;;;;;5026823;28;20179;-74
2022/09/19 09:01:47;;;;;;;26.85;3.58;;;14.20;99.90;;;;;;5025893;28;20061;-74
2022/09/19 09:04:31;;;;;;;19.10;3.13;;;14.30;99.90;;;;;;5023228;28;20512;-74
2022/09/19 09:07:11;;;;;;;11.57;2.70;;;14.50;99.90;;;;;;5025487;28;20041;-74
2022/09/19 09:09:58;;;;;;;9.82;1.98;;;14.50;99.90;;;;;;5026478;28;20041;-74
2022/09/19 09:12:55;;;;;;;25.02;3.55;;;14.50;99.90;;;;;;5025269;28;20115;-74
2022/09/19 09:15:39;;;;;;;11.02;3.38;;;14.50;99.90;;;;;;5026313;28;20056;-74
2022/09/19 09:18:17;;;;;;;14.57;2.63;;;14.70;99.90;;;;;;5022282;28;20050;-73
2022/09/19 09:20:54;;;;;;;9.88;1.38;;;14.70;99.90;;;;;;5023578;28;20045;-74
2022/09/19 09:23:23;;;;;;;9.43;1.33;;;14.70;99.90;;;;;;5022869;28;20046;-75
2022/09/19 09:25:52;;;;;;;11.82;2.55;;;14.90;99.90;;;;;;5025242;28;20432;-75
2022/09/19 09:28:28;;;;;;;14.15;3.05;;;15.00;99.90;;;;;;5040093;28;20045;-75
2022/09/19 09:31:19;;;;;;;9.63;2.88;;;15.00;99.90;;;;;;5024993;28;20064;-73
2022/09/19 09:34:22;;;;;;;10.73;2.35;;;14.60;99.90;;;;;;5019136;28;20053;-73
2022/09/19 09:36:58;;;;;;;11.63;2.03;;;14.30;99.90;;;;;;5025007;28;20121;-73
2022/09/19 09:39:49;;;;;;;6.80;1.20;;;14.30;99.90;;;;;;5025045;28;20087;-73
2022/09/19 09:42:21;;;;;;;7.57;1.45;;;14.50;99.90;;;;;;5024584;28;20116;-73
2022/09/19 09:45:03;;;;;;;6.38;2.13;;;14.70;99.90;;;;;;5024512;28;20042;-74
2022/09/19 09:47:44;;;;;;;6.75;1.90;;;14.80;99.90;;;;;;5022916;28;20037;-73
2022/09/19 09:50:28;;;;;;;;;;;15.00;99.90;;;;;;5023307;28;20140;-73
2022/09/19 09:53:18;;;;;;;11.73;2.72;;;15.00;99.90;;;;;;5020843;28;19925;-74
2022/09/19 09:56:17;;;;;;;6.70;1.58;;;15.10;99.90;;;;;;5024410;28;20046;-74
2022/09/19 10:03:34;;;;;;;16.85;5.15;;;15.10;99.90;;;;;;5025090;28;20045;-74
2022/09/19 10:05:07;;;;;;;11.77;2.42;;;15.40;99.90;;;;;;5024385;28;20045;-74
2022/09/19 10:07:43;;;;;;;11.13;2.33;;;15.60;99.90;;;;;;5024701;28;20053;-74
2022/09/19 10:10:16;;;;;;;12.20;2.88;;;15.70;99.90;;;;;;5025208;28;20046;-74
2022/09/19 10:12:55;;;;;;;10.23;1.75;;;15.50;99.90;;;;;;5024786;28;20045;-74
2022/09/19 10:15:24;;;;;;;8.20;1.95;;;15.30;99.90;;;;;;5022379;28;20053;-73
2022/09/19 10:18:00;;;;;;;10.15;1.30;;;15.20;99.90;;;;;;5014124;28;20135;-73
2022/09/19 10:20:38;;;;;;;19.08;3.17;;;14.80;99.90;;;;;;5023822;28;20044;-72
2022/09/19 10:23:10;;;;;;;24.95;3.30;;;14.70;99.90;;;;;;5023741;28;20049;-75
2022/09/19 10:25:35;;;;;;;18.65;3.22;;;14.70;99.90;;;;;;5023186;28;20034;-72
2022/09/19 10:28:29;;;;;;;15.02;2.60;;;14.90;99.90;;;;;;5025447;28;20068;-73
2022/09/19 10:31:01;;;;;;;21.17;4.07;;;15.00;99.90;;;;;;5023241;28;20057;-73
2022/09/19 10:33:40;;;;;;;16.00;3.88;;;15.40;99.90;;;;;;5022741;28;20502;-73
2022/09/19 10:36:19;;;;;;;13.68;2.80;;;15.50;99.90;;;;;;5023342;28;20064;-73
2022/09/19 10:38:58;;;;;;;23.77;4.72;;;15.60;99.90;;;;;;5023502;28;20086;-72
2022/09/19 10:41:27;;;;;;;7.95;2.10;;;15.80;99.90;;;;;;5024316;28;20382;-72
2022/09/19 10:43:56;;;;;;;15.10;2.75;;;15.90;99.90;;;;;;5023452;28;20038;-72
2022/09/19 10:46:36;;;;;;;14.87;2.63;;;15.70;99.90;;;;;;5025261;28;20046;-73
2022/09/19 10:49:05;;;;;;;12.65;3.60;;;15.70;99.90;;;;;;5023706;28;20354;-73
2022/09/19 10:51:36;;;;;;;10.60;3.08;;;15.60;99.90;;;;;;5024609;28;20056;-73
2022/09/19 10:54:11;;;;;;;17.38;3.58;;;15.70;99.90;;;;;;5024403;28;20034;-74
2022/09/19 10:56:40;;;;;;;13.52;2.63;;;15.80;99.90;;;;;;5024988;28;20454;-73
2022/09/19 10:59:18;;;;;;;14.40;2.20;;;15.50;99.90;;;;;;5019079;28;20033;-74
2022/09/19 11:02:04;;;;;;;12.63;3.53;;;15.70;99.90;;;;;;5010595;28;20053;-74
2022/09/19 11:04:29;;;;;;;13.38;1.77;;;16.00;99.90;;;;;;5024772;28;20820;-74
2022/09/19 11:07:01;;;;;;;11.88;2.38;;;16.00;99.90;;;;;;5027465;28;20049;-75
2022/09/19 11:09:36;;;;;;;22.92;4.85;;;16.00;99.90;;;;;;5028498;28;20045;-75
2022/09/19 11:12:13;;;;;;;9.10;1.52;;;15.90;99.90;;;;;;5029080;28;20117;-75
2022/09/19 11:14:40;;;;;;;18.45;2.78;;;15.80;99.90;;;;;;5026689;28;20096;-74
2022/09/19 11:17:53;;;;;;;13.00;2.85;;;15.80;99.90;;;;;;5027254;28;20045;-75
2022/09/19 11:20:46;;;;;;;11.70;2.60;;;15.80;99.90;;;;;;5027683;28;20091;-72
2022/09/19 11:23:15;;;;;;;9.43;2.30;;;15.20;99.90;;;;;;5028365;28;20585;-74
2022/09/19 11:25:53;;;;;;;13.90;2.50;;;15.00;99.90;;;;;;5026884;28;20043;-76
2022/09/19 11:28:43;;;;;;;8.98;2.17;;;14.80;99.90;;;;;;5028725;28;20210;-75
2022/09/19 11:31:28;;;;;;;13.15;4.03;;;14.40;99.90;;;;;;5029342;28;20041;-76
2022/09/19 11:34:11;;;;;;;13.25;2.35;;;14.40;99.90;;;;;;5027041;28;20108;-77
2022/09/19 11:36:52;;;;;;;10.57;2.63;;;14.10;99.90;;;;;;5028454;28;20048;-75
2022/09/19 11:39:57;;;;;;;12.95;2.88;;;14.00;99.90;;;;;;5027486;28;20049;-75
2022/09/19 11:42:58;;;;;;;17.52;2.00;;;14.00;99.90;;;;;;5027323;28;20083;-76
2022/09/19 11:45:26;;;;;;;;;;;14.50;99.90;;;;;;5028083;28;20053;-76
2022/09/19 11:48:22;;;;;;;14.73;2.42;;;14.60;99.90;;;;;;5024129;28;19933;-75
2022/09/19 11:50:59;;;;;;;16.95;3.78;;;14.90;99.90;;;;;;5024476;28;20041;-78
2022/09/19 11:53:31;;;;;;;17.00;4.55;;;15.10;99.90;;;;;;5027840;28;20408;-78
2022/09/19 11:56:23;;;;;;;14.45;2.72;;;15.30;99.90;;;;;;5027420;28;20052;-76
2022/09/19 11:59:03;;;;;;;11.10;2.85;;;15.20;99.90;;;;;;5020059;28;20052;-78
2022/09/19 12:01:31;;;;;;;10.70;1.60;;;15.50;99.90;;;;;;5033482;28;20049;-76
2022/09/19 12:04:23;;;;;;;9.77;2.20;;;16.00;99.90;;;;;;5032955;28;20080;-76
2022/09/19 12:07:08;;;;;;;9.63;2.53;;;16.00;99.90;;;;;;5030997;28;20077;-76
2022/09/19 12:09:44;;;;;;;9.85;2.40;;;15.90;99.90;;;;;;5027400;28;20037;-76
2022/09/19 12:12:15;;;;;;;8.35;1.42;;;15.90;99.90;;;;;;5027527;28;20037;-77
2022/09/19 12:14:46;;;;;;;10.77;1.55;;;16.30;99.90;;;;;;5027314;28;20034;-76
2022/09/19 12:17:23;;;;;;;8.98;2.22;;;16.30;99.90;;;;;;5024548;28;20052;-79
2022/09/19 12:20:12;;;;;;;7.55;1.90;;;15.90;99.90;;;;;;5028110;28;20042;-78
2022/09/19 12:22:43;;;;;;;12.20;2.25;;;15.80;99.90;;;;;;5027600;28;20052;-78
2022/09/19 12:25:18;;;;;;;8.95;2.45;;;15.40;99.90;;;;;;5027413;28;20044;-77
2022/09/19 12:28:05;;;;;;;9.55;1.92;;;15.10;99.90;;;;;;5024963;28;20041;-79
2022/09/19 12:30:40;;;;;;;11.23;2.38;;;14.80;99.90;;;;;;5025624;28;20504;-77
2022/09/19 12:33:41;;;;;;;8.27;1.33;;;14.40;99.90;;;;;;5026534;28;20077;-77
2022/09/19 12:36:20;;;;;;;11.73;1.83;;;13.90;99.90;;;;;;5018596;28;20440;-77
2022/09/19 12:39:02;;;;;;;8.23;2.03;;;13.70;99.90;;;;;;5027479;28;20377;-77
2022/09/19 12:41:49;;;;;;;8.82;1.80;;;13.60;99.90;;;;;;5027286;28;20037;-77
2022/09/19 12:44:15;;;;;;;10.25;1.48;;;13.00;99.90;;;;;;5025214;28;20053;-77
2022/09/19 12:47:15;;;;;;;8.23;1.50;;;13.20;99.90;;;;;;5024337;28;20451;-76
2022/09/19 12:50:07;;;;;;;10.10;2.30;;;13.40;99.90;;;;;;5027166;28;20057;-76
2022/09/19 12:52:36;;;;;;;15.45;2.97;;;13.40;99.90;;;;;;5026736;28;20061;-77
2022/09/19 12:55:26;;;;;;;10.30;1.70;;;13.00;99.90;;;;;;5026189;28;20400;-76
2022/09/19 12:58:01;;;;;;;20.67;7.80;;;13.50;99.90;;;;;;5026707;28;20652;-76
2022/09/19 13:00:28;;;;;;;18.65;3.10;;;13.50;99.90;;;;;;5025283;28;20073;-76
2022/09/19 13:03:11;;;;;;;15.30;1.70;;;13.40;99.90;;;;;;5025917;28;20052;-77
2022/09/19 13:05:40;;;;;;;11.40;2.28;;;13.30;99.90;;;;;;5026020;28;21404;-77
2022/09/19 13:08:34;;;;;;;10.50;3.40;;;13.30;99.90;;;;;;5007354;28;20129;-77
2022/09/19 13:11:43;;;;;;;13.45;2.65;;;13.60;99.90;;;;;;5026534;28;20077;-76
2022/09/19 13:14:22;;;;;;;7.50;2.10;;;13.60;99.90;;;;;;4992940;28;20130;-77
2022/09/19 13:25:19;;;;;;;27.58;3.13;;;13.70;99.90;;;;;;5024349;28;20092;-78
2022/09/19 13:27:46;;;;;;;11.80;2.30;;;14.20;99.90;;;;;;5025299;28;20049;-76